sensor_id;sensor_type;location;lat;lon;timestamp;pressure;altitude;pressure_sealevel;temperature;humidity
32735;BME280;19112;51.076;3.706;2023-07-31T02:24:18;100978.44;;;20.04;85.28
32735;BME280;19112;51.076;3.706;2023-07-31T02:28:13;100961.53;;;20.02;85.23
32735;BME280;19112;51.076;3.706;2023-07-31T03:09:03;100513.34;;;17.83;86.00
32735;BME280;19112;51.076;3.706;2023-07-31T03:17:12;100487.69;;;17.60;86.52
32735;BME280;19112;51.076;3.706;2023-07-31T08:04:05;100144.16;;;18.86;81.62
32735;BME280;19112;51.076;3.706;2023-07-31T08:41:18;100729.28;;;22.99;77.74
32735;BME280;19112;51.076;3.706;2023-07-31T08:48:09;100219.72;;;20.05;77.25
32735;BME280;19112;51.076;3.706;2023-07-31T08:59:14;100733.53;;;23.10;77.09
32735;BME280;19112;51.076;3.706;2023-07-31T09:02:48;100334.16;;;20.74;77.77
32735;BME280;19112;51.076;3.706;2023-07-31T09:09:51;100740.81;;;23.03;78.38
32735;BME280;19112;51.076;3.706;2023-07-31T09:13:43;100538.28;;;22.12;78.04
32735;BME280;19112;51.076;3.706;2023-07-31T09:17:29;100725.22;;;23.23;78.35
32735;BME280;19112;51.076;3.706;2023-07-31T09:37:18;100694.97;;;23.18;77.28
32735;BME280;19112;51.076;3.706;2023-07-31T09:40:39;100747.38;;;23.32;77.43
32735;BME280;19112;51.076;3.706;2023-07-31T09:43:34;100350.00;;;21.34;76.45
32735;BME280;19112;51.076;3.706;2023-07-31T09:57:34;100230.97;;;20.76;74.94
32735;BME280;19112;51.076;3.706;2023-07-31T10:00:18;100347.00;;;21.51;76.07
32735;BME280;19112;51.076;3.706;2023-07-31T10:03:12;100694.28;;;23.89;76.02
32735;BME280;19112;51.076;3.706;2023-07-31T10:05:55;100389.13;;;22.27;75.02
32735;BME280;19112;51.076;3.706;2023-07-31T10:08:43;100690.78;;;24.21;74.74
32735;BME280;19112;51.076;3.706;2023-07-31T10:12:22;100696.47;;;24.45;74.67
32735;BME280;19112;51.076;3.706;2023-07-31T10:15:04;100249.22;;;21.86;72.55
32735;BME280;19112;51.076;3.706;2023-07-31T10:17:48;100305.56;;;22.17;72.29
32735;BME280;19112;51.076;3.706;2023-07-31T10:20:40;100600.53;;;23.47;72.59
32735;BME280;19112;51.076;3.706;2023-07-31T10:23:14;100190.28;;;21.10;71.64
32735;BME280;19112;51.076;3.706;2023-07-31T10:26:11;100352.94;;;22.09;72.35
32735;BME280;19112;51.076;3.706;2023-07-31T10:29:06;100689.13;;;23.80;74.40
32735;BME280;19112;51.076;3.706;2023-07-31T10:32:23;100677.94;;;23.63;76.90
32735;BME280;19112;51.076;3.706;2023-07-31T10:35:01;100682.34;;;23.65;76.52
32735;BME280;19112;51.076;3.706;2023-07-31T10:38:12;100683.28;;;23.63;76.19
32735;BME280;19112;51.076;3.706;2023-07-31T10:40:50;100279.47;;;21.44;76.10
32735;BME280;19112;51.076;3.706;2023-07-31T10:43:35;100255.31;;;21.51;76.29
32735;BME280;19112;51.076;3.706;2023-07-31T10:46:27;100681.31;;;24.08;77.16
32735;BME280;19112;51.076;3.706;2023-07-31T10:53:03;100157.59;;;21.42;74.30
32735;BME280;19112;51.076;3.706;2023-07-31T10:56:16;100682.03;;;24.50;74.84
32735;BME280;19112;51.076;3.706;2023-07-31T10:59:06;100670.38;;;24.51;74.94
32735;BME280;19112;51.076;3.706;2023-07-31T11:02:07;100361.19;;;22.77;74.54
32735;BME280;19112;51.076;3.706;2023-07-31T11:08:52;100333.44;;;22.44;73.79
32735;BME280;19112;51.076;3.706;2023-07-31T11:11:58;100296.94;;;22.41;73.57
32735;BME280;19112;51.076;3.706;2023-07-31T11:14:53;100190.06;;;22.00;74.40
32735;BME280;19112;51.076;3.706;2023-07-31T11:17:42;100334.78;;;22.99;73.64
32735;BME280;19112;51.076;3.706;2023-07-31T11:20:16;100343.06;;;22.88;71.65
32735;BME280;19112;51.076;3.706;2023-07-31T11:23:26;100290.44;;;22.87;71.30
32735;BME280;19112;51.076;3.706;2023-07-31T11:26:38;100514.56;;;23.91;72.40
32735;BME280;19112;51.076;3.706;2023-07-31T11:29:34;100327.47;;;22.70;72.23
32735;BME280;19112;51.076;3.706;2023-07-31T11:32:16;100244.06;;;22.17;73.34
32735;BME280;19112;51.076;3.706;2023-07-31T11:35:07;100611.50;;;24.45;73.59
32735;BME280;19112;51.076;3.706;2023-07-31T11:37:46;100630.78;;;24.25;73.20
32735;BME280;19112;51.076;3.706;2023-07-31T11:40:27;100499.22;;;23.62;74.11
32735;BME280;19112;51.076;3.706;2023-07-31T11:43:05;100307.75;;;22.72;72.26
32735;BME280;19112;51.076;3.706;2023-07-31T11:46:00;100175.91;;;22.32;71.07
32735;BME280;19112;51.076;3.706;2023-07-31T11:48:44;100604.13;;;25.14;72.05
32735;BME280;19112;51.076;3.706;2023-07-31T11:51:20;100274.88;;;23.67;69.87
32735;BME280;19112;51.076;3.706;2023-07-31T11:54:26;100065.97;;;22.73;69.89
32735;BME280;19112;51.076;3.706;2023-07-31T11:57:23;100253.22;;;24.01;68.89
32735;BME280;19112;51.076;3.706;2023-07-31T12:00:42;100494.28;;;25.56;68.16
32735;BME280;19112;51.076;3.706;2023-07-31T12:04:03;100317.81;;;24.23;67.25
32735;BME280;19112;51.076;3.706;2023-07-31T12:07:07;100176.03;;;23.25;69.37
32735;BME280;19112;51.076;3.706;2023-07-31T12:09:56;100145.59;;;22.98;67.73
32735;BME280;19112;51.076;3.706;2023-07-31T12:16:07;100111.88;;;22.26;70.47
32735;BME280;19112;51.076;3.706;2023-07-31T12:19:04;99989.84;;;21.21;67.47
32735;BME280;19112;51.076;3.706;2023-07-31T12:21:58;100230.53;;;22.59;71.60
32735;BME280;19112;51.076;3.706;2023-07-31T12:24:58;100236.44;;;22.36;73.02
32735;BME280;19112;51.076;3.706;2023-07-31T12:27:50;100212.72;;;21.85;73.49
32735;BME280;19112;51.076;3.706;2023-07-31T12:31:01;100593.38;;;23.85;75.32
32735;BME280;19112;51.076;3.706;2023-07-31T12:34:14;100466.41;;;22.79;78.23
32735;BME280;19112;51.076;3.706;2023-07-31T12:37:15;100466.69;;;22.67;79.73
32735;BME280;19112;51.076;3.706;2023-07-31T12:42:45;100111.09;;;20.19;80.50
32735;BME280;19112;51.076;3.706;2023-07-31T12:45:37;100130.41;;;20.32;81.65
32735;BME280;19112;51.076;3.706;2023-07-31T12:52:29;100579.66;;;22.83;84.96
32735;BME280;19112;51.076;3.706;2023-07-31T13:33:03;100167.13;;;19.60;92.97
32735;BME280;19112;51.076;3.706;2023-07-31T13:39:58;100527.75;;;21.54;94.88
32735;BME280;19112;51.076;3.706;2023-07-31T13:43:23;100533.03;;;21.57;95.49
32735;BME280;19112;51.076;3.706;2023-07-31T13:46:03;100505.41;;;21.56;95.43
32735;BME280;19112;51.076;3.706;2023-07-31T13:55:22;100098.53;;;19.15;95.96
32735;BME280;19112;51.076;3.706;2023-07-31T13:57:53;100206.78;;;19.79;95.18
32735;BME280;19112;51.076;3.706;2023-07-31T14:00:23;99931.41;;;18.18;94.26
32735;BME280;19112;51.076;3.706;2023-07-31T14:02:55;100186.28;;;19.84;94.79
32735;BME280;19112;51.076;3.706;2023-07-31T14:06:17;100496.41;;;21.62;95.60
32735;BME280;19112;51.076;3.706;2023-07-31T14:09:30;100136.25;;;19.46;95.45
32735;BME280;19112;51.076;3.706;2023-07-31T14:19:05;100479.53;;;21.60;96.15
32735;BME280;19112;51.076;3.706;2023-07-31T14:21:38;100181.94;;;19.78;95.46
32735;BME280;19112;51.076;3.706;2023-07-31T14:24:22;100164.22;;;19.77;95.86
32735;BME280;19112;51.076;3.706;2023-07-31T14:27:29;100174.75;;;19.83;95.63
32735;BME280;19112;51.076;3.706;2023-07-31T14:30:32;100462.00;;;21.45;96.69
32735;BME280;19112;51.076;3.706;2023-07-31T14:37:45;100153.63;;;19.73;96.51
32735;BME280;19112;51.076;3.706;2023-07-31T14:48:39;100132.47;;;19.62;97.80
32735;BME280;19112;51.076;3.706;2023-07-31T14:51:21;100431.81;;;21.41;98.25
32735;BME280;19112;51.076;3.706;2023-07-31T14:54:37;100429.03;;;21.48;98.04
32735;BME280;19112;51.076;3.706;2023-07-31T15:01:39;100397.16;;;21.37;97.67
32735;BME280;19112;51.076;3.706;2023-07-31T15:09:09;100410.31;;;21.48;97.58
32735;BME280;19112;51.076;3.706;2023-07-31T15:42:03;100372.94;;;21.46;98.08
32735;BME280;19112;51.076;3.706;2023-07-31T16:40:13;99983.53;;;19.50;97.79
32735;BME280;19112;51.076;3.706;2023-07-31T16:43:38;100304.53;;;21.39;97.63
32735;BME280;19112;51.076;3.706;2023-07-31T16:46:35;100310.97;;;21.27;97.49
32735;BME280;19112;51.076;3.706;2023-07-31T16:49:09;100013.00;;;19.39;97.46
32735;BME280;19112;51.076;3.706;2023-07-31T16:51:36;99939.25;;;18.92;97.33
32735;BME280;19112;51.076;3.706;2023-07-31T16:54:02;100330.69;;;21.20;97.72
32735;BME280;19112;51.076;3.706;2023-07-31T16:56:33;100331.63;;;21.17;97.91
32735;BME280;19112;51.076;3.706;2023-07-31T16:59:05;99822.31;;;18.28;97.35
32735;BME280;19112;51.076;3.706;2023-07-31T17:01:32;99977.31;;;18.97;97.87
32735;BME280;19112;51.076;3.706;2023-07-31T17:03:59;100051.72;;;19.60;98.19
32735;BME280;19112;51.076;3.706;2023-07-31T17:06:29;99886.41;;;18.69;98.32
32735;BME280;19112;51.076;3.706;2023-07-31T17:08:55;99952.28;;;19.08;98.15
32735;BME280;19112;51.076;3.706;2023-07-31T17:11:26;100279.06;;;21.21;97.61
32735;BME280;19112;51.076;3.706;2023-07-31T17:14:04;99727.56;;;18.26;97.22
32735;BME280;19112;51.076;3.706;2023-07-31T17:16:37;99911.06;;;19.34;97.72
32735;BME280;19112;51.076;3.706;2023-07-31T17:19:04;100187.41;;;21.21;98.07
32735;BME280;19112;51.076;3.706;2023-07-31T17:21:34;99821.50;;;19.30;97.27
32735;BME280;19112;51.076;3.706;2023-07-31T17:24:26;99931.88;;;20.06;97.60
32735;BME280;19112;51.076;3.706;2023-07-31T17:27:05;99588.56;;;17.71;97.47
32735;BME280;19112;51.076;3.706;2023-07-31T17:29:57;99735.84;;;18.62;97.86
32735;BME280;19112;51.076;3.706;2023-07-31T17:32:32;99931.94;;;19.57;98.35
32735;BME280;19112;51.076;3.706;2023-07-31T17:35:42;99915.31;;;19.43;97.85
32735;BME280;19112;51.076;3.706;2023-07-31T17:38:12;99931.25;;;19.46;98.05
32735;BME280;19112;51.076;3.706;2023-07-31T17:41:02;99815.75;;;19.05;98.20
32735;BME280;19112;51.076;3.706;2023-07-31T17:44:18;99801.81;;;18.91;97.89
32735;BME280;19112;51.076;3.706;2023-07-31T17:47:34;99825.56;;;19.01;97.78
32735;BME280;19112;51.076;3.706;2023-07-31T17:50:37;99819.34;;;19.04;97.85
32735;BME280;19112;51.076;3.706;2023-07-31T17:53:13;99844.91;;;19.13;97.84
32735;BME280;19112;51.076;3.706;2023-07-31T17:56:32;100230.25;;;21.56;98.53
32735;BME280;19112;51.076;3.706;2023-07-31T18:00:34;99710.97;;;18.64;98.02
32735;BME280;19112;51.076;3.706;2023-07-31T18:04:01;100228.91;;;21.77;97.91
32735;BME280;19112;51.076;3.706;2023-07-31T18:10:12;99952.63;;;19.91;97.38
32735;BME280;19112;51.076;3.706;2023-07-31T18:13:50;99848.06;;;19.33;96.83
32735;BME280;19112;51.076;3.706;2023-07-31T18:16:37;99840.97;;;19.32;96.78
32735;BME280;19112;51.076;3.706;2023-07-31T18:19:11;99910.56;;;19.61;96.64
32735;BME280;19112;51.076;3.706;2023-07-31T18:22:00;99916.38;;;19.83;96.14
32735;BME280;19112;51.076;3.706;2023-07-31T18:24:30;99900.56;;;19.74;96.26
32735;BME280;19112;51.076;3.706;2023-07-31T18:27:17;99855.56;;;19.60;96.58
32735;BME280;19112;51.076;3.706;2023-07-31T18:30:22;99840.56;;;19.55;95.78
32735;BME280;19112;51.076;3.706;2023-07-31T18:33:31;99715.31;;;18.71;95.89
32735;BME280;19112;51.076;3.706;2023-07-31T18:36:30;99913.41;;;19.97;95.57
32735;BME280;19112;51.076;3.706;2023-07-31T18:39:23;100006.53;;;20.51;95.38
32735;BME280;19112;51.076;3.706;2023-07-31T18:42:32;99764.09;;;19.18;95.20
32735;BME280;19112;51.076;3.706;2023-07-31T18:45:33;99901.69;;;20.06;94.80
32735;BME280;19112;51.076;3.706;2023-07-31T18:48:53;99779.81;;;19.30;94.48
32735;BME280;19112;51.076;3.706;2023-07-31T18:51:49;99919.50;;;20.04;94.25
32735;BME280;19112;51.076;3.706;2023-07-31T18:54:37;99889.13;;;19.69;93.51
32735;BME280;19112;51.076;3.706;2023-07-31T19:01:17;99893.09;;;19.45;94.53
32735;BME280;19112;51.076;3.706;2023-07-31T19:04:35;99778.22;;;18.72;94.69
32735;BME280;19112;51.076;3.706;2023-07-31T19:12:07;99862.47;;;19.21;94.98
32735;BME280;19112;51.076;3.706;2023-07-31T19:14:41;99788.72;;;18.81;94.47
32735;BME280;19112;51.076;3.706;2023-07-31T19:17:45;99633.63;;;17.79;94.71
32735;BME280;19112;51.076;3.706;2023-07-31T19:24:50;99761.69;;;18.52;95.59
32735;BME280;19112;51.076;3.706;2023-07-31T19:28:20;100169.03;;;21.04;96.02
32735;BME280;19112;51.076;3.706;2023-07-31T19:32:00;99718.38;;;18.48;95.65
32735;BME280;19112;51.076;3.706;2023-07-31T19:35:22;99862.63;;;19.14;95.92
32735;BME280;19112;51.076;3.706;2023-07-31T19:38:12;99859.00;;;19.16;95.91
32735;BME280;19112;51.076;3.706;2023-07-31T19:41:22;99909.00;;;19.50;95.98
32735;BME280;19112;51.076;3.706;2023-07-31T19:44:42;99701.50;;;18.48;96.12
32735;BME280;19112;51.076;3.706;2023-07-31T19:51:18;99700.53;;;18.53;95.68
32735;BME280;19112;51.076;3.706;2023-07-31T19:58:07;99602.41;;;17.93;95.43
32735;BME280;19112;51.076;3.706;2023-07-31T20:01:46;100149.28;;;21.12;96.33
32735;BME280;19112;51.076;3.706;2023-07-31T20:04:27;99816.31;;;19.22;95.74
32735;BME280;19112;51.076;3.706;2023-07-31T20:07:32;100012.19;;;20.33;95.22
32735;BME280;19112;51.076;3.706;2023-07-31T20:10:13;99732.66;;;18.91;95.92
32735;BME280;19112;51.076;3.706;2023-07-31T20:13:00;99562.88;;;17.76;95.70
32735;BME280;19112;51.076;3.706;2023-07-31T20:16:02;100103.84;;;21.15;95.95
32735;BME280;19112;51.076;3.706;2023-07-31T20:18:49;99769.63;;;19.06;95.71
32735;BME280;19112;51.076;3.706;2023-07-31T20:21:33;99703.81;;;18.71;94.80
32735;BME280;19112;51.076;3.706;2023-07-31T20:24:38;99892.31;;;19.86;95.18
32735;BME280;19112;51.076;3.706;2023-07-31T20:27:52;99756.38;;;19.04;94.88
32735;BME280;19112;51.076;3.706;2023-07-31T20:31:08;99777.41;;;19.17;95.27
32735;BME280;19112;51.076;3.706;2023-07-31T20:33:58;100109.66;;;20.92;95.69
32735;BME280;19112;51.076;3.706;2023-07-31T20:37:02;99760.69;;;19.10;95.19
32735;BME280;19112;51.076;3.706;2023-07-31T20:39:34;99629.34;;;18.23;94.67
32735;BME280;19112;51.076;3.706;2023-07-31T20:42:36;99774.88;;;19.10;94.27
32735;BME280;19112;51.076;3.706;2023-07-31T20:45:13;100083.03;;;20.91;94.70
32735;BME280;19112;51.076;3.706;2023-07-31T20:48:01;99639.94;;;18.24;94.67
32735;BME280;19112;51.076;3.706;2023-07-31T20:50:41;99545.03;;;17.83;93.94
32735;BME280;19112;51.076;3.706;2023-07-31T20:53:34;99828.22;;;19.51;93.92
32735;BME280;19112;51.076;3.706;2023-07-31T20:56:04;99747.56;;;19.01;93.82
32735;BME280;19112;51.076;3.706;2023-07-31T20:58:34;99645.81;;;18.43;93.99
32735;BME280;19112;51.076;3.706;2023-07-31T21:01:42;99748.13;;;19.17;94.25
32735;BME280;19112;51.076;3.706;2023-07-31T21:04:31;99770.34;;;19.16;94.07
32735;BME280;19112;51.076;3.706;2023-07-31T21:07:26;99676.34;;;18.70;94.43
32735;BME280;19112;51.076;3.706;2023-07-31T21:10:07;99893.81;;;20.00;94.29
32735;BME280;19112;51.076;3.706;2023-07-31T21:12:34;99748.00;;;19.24;94.51
32735;BME280;19112;51.076;3.706;2023-07-31T21:15:10;99741.00;;;19.19;94.21
32735;BME280;19112;51.076;3.706;2023-07-31T21:17:42;99751.75;;;19.14;94.12
32735;BME280;19112;51.076;3.706;2023-07-31T21:20:38;99687.66;;;18.80;94.31
32735;BME280;19112;51.076;3.706;2023-07-31T21:23:33;99742.72;;;19.21;93.75
32735;BME280;19112;51.076;3.706;2023-07-31T21:26:07;99907.81;;;20.11;94.15
32735;BME280;19112;51.076;3.706;2023-07-31T21:28:56;99736.03;;;19.02;94.59
32735;BME280;19112;51.076;3.706;2023-07-31T21:31:48;99733.56;;;18.91;94.33
32735;BME280;19112;51.076;3.706;2023-07-31T21:34:22;99634.34;;;18.40;94.37
32735;BME280;19112;51.076;3.706;2023-07-31T21:37:00;99624.75;;;18.31;93.95
32735;BME280;19112;51.076;3.706;2023-07-31T21:39:48;99444.31;;;17.23;93.73
32735;BME280;19112;51.076;3.706;2023-07-31T21:42:31;99545.91;;;17.85;94.16
32735;BME280;19112;51.076;3.706;2023-07-31T21:45:06;99692.34;;;18.64;94.16
32735;BME280;19112;51.076;3.706;2023-07-31T21:48:32;99636.25;;;18.31;93.99
32735;BME280;19112;51.076;3.706;2023-07-31T21:51:02;99666.75;;;18.58;93.49
32735;BME280;19112;51.076;3.706;2023-07-31T21:53:40;99853.78;;;19.58;94.07
32735;BME280;19112;51.076;3.706;2023-07-31T21:56:30;99613.53;;;18.17;93.44
32735;BME280;19112;51.076;3.706;2023-07-31T21:59:16;99979.31;;;20.32;94.26
32735;BME280;19112;51.076;3.706;2023-07-31T22:01:47;99999.81;;;20.29;93.73
32735;BME280;19112;51.076;3.706;2023-07-31T22:04:52;99523.63;;;17.40;94.11
32735;BME280;19112;51.076;3.706;2023-07-31T22:07:39;99576.31;;;17.63;93.95
32735;BME280;19112;51.076;3.706;2023-07-31T22:10:14;100009.78;;;20.21;93.89
32735;BME280;19112;51.076;3.706;2023-07-31T22:12:42;99668.50;;;18.10;92.83
32735;BME280;19112;51.076;3.706;2023-07-31T22:15:30;99607.06;;;17.80;94.42
32735;BME280;19112;51.076;3.706;2023-07-31T22:18:01;100024.84;;;20.22;94.47
32735;BME280;19112;51.076;3.706;2023-07-31T22:20:34;99693.28;;;18.11;94.74
32735;BME280;19112;51.076;3.706;2023-07-31T22:23:11;99559.94;;;17.38;95.08
32735;BME280;19112;51.076;3.706;2023-07-31T22:26:04;100006.38;;;20.12;95.18
32735;BME280;19112;51.076;3.706;2023-07-31T22:28:54;100009.75;;;20.22;94.82
32735;BME280;19112;51.076;3.706;2023-07-31T22:31:33;100020.59;;;20.11;94.70
32735;BME280;19112;51.076;3.706;2023-07-31T22:34:02;99383.22;;;16.12;94.46
32735;BME280;19112;51.076;3.706;2023-07-31T22:36:43;99707.44;;;18.13;94.81
32735;BME280;19112;51.076;3.706;2023-07-31T22:39:18;99653.94;;;17.82;94.78
32735;BME280;19112;51.076;3.706;2023-07-31T22:42:19;99560.84;;;17.37;94.86
32735;BME280;19112;51.076;3.706;2023-07-31T22:44:49;100038.53;;;20.03;94.79
32735;BME280;19112;51.076;3.706;2023-07-31T22:47:54;99616.91;;;17.71;95.12
32735;BME280;19112;51.076;3.706;2023-07-31T22:50:31;99690.81;;;18.00;95.36
32735;BME280;19112;51.076;3.706;2023-07-31T22:53:01;100023.72;;;19.88;94.84
32735;BME280;19112;51.076;3.706;2023-07-31T22:55:37;99689.22;;;17.88;94.33
32735;BME280;19112;51.076;3.706;2023-07-31T22:58:10;99751.56;;;18.23;94.48
32735;BME280;19112;51.076;3.706;2023-07-31T23:00:51;100004.16;;;19.89;95.21
32735;BME280;19112;51.076;3.706;2023-07-31T23:03:23;99654.09;;;17.69;94.93
32735;BME280;19112;51.076;3.706;2023-07-31T23:06:00;99670.59;;;17.91;95.53
32735;BME280;19112;51.076;3.706;2023-07-31T23:08:34;99686.41;;;17.99;95.55
32735;BME280;19112;51.076;3.706;2023-07-31T23:11:02;99585.78;;;17.23;95.36
32735;BME280;19112;51.076;3.706;2023-07-31T23:14:01;100035.38;;;19.83;96.34
32735;BME280;19112;51.076;3.706;2023-07-31T23:16:40;99998.09;;;19.80;95.15
32735;BME280;19112;51.076;3.706;2023-07-31T23:19:11;99466.41;;;16.63;94.35
32735;BME280;19112;51.076;3.706;2023-07-31T23:22:09;100015.75;;;19.87;95.26
32735;BME280;19112;51.076;3.706;2023-07-31T23:24:41;99662.66;;;17.90;94.00
32735;BME280;19112;51.076;3.706;2023-07-31T23:27:12;100003.31;;;19.87;93.59
32735;BME280;19112;51.076;3.706;2023-07-31T23:29:42;99647.63;;;17.89;93.48
32735;BME280;19112;51.076;3.706;2023-07-31T23:32:14;99745.03;;;18.42;93.80
32735;BME280;19112;51.076;3.706;2023-07-31T23:34:42;99361.78;;;16.32;93.83
32735;BME280;19112;51.076;3.706;2023-07-31T23:37:22;99502.63;;;17.24;94.19
32735;BME280;19112;51.076;3.706;2023-07-31T23:40:14;99621.00;;;17.93;94.47
32735;BME280;19112;51.076;3.706;2023-07-31T23:42:42;99979.50;;;19.78;94.14
32735;BME280;19112;51.076;3.706;2023-07-31T23:45:10;99981.22;;;19.81;93.72
32735;BME280;19112;51.076;3.706;2023-07-31T23:48:12;99636.88;;;17.95;93.67
32735;BME280;19112;51.076;3.706;2023-07-31T23:50:42;99615.38;;;17.54;93.19
32735;BME280;19112;51.076;3.706;2023-07-31T23:53:22;99966.50;;;19.60;93.83
32735;BME280;19112;51.076;3.706;2023-07-31T23:56:30;99610.22;;;17.45;93.18
32735;BME280;19112;51.076;3.706;2023-07-31T23:59:02;99594.66;;;17.19;92.86
